Terminal Aerodrome Forecast
Issued by NWS

Home | Current Version | Previous Version | Text Only | Print | Product List | Glossary On
Versions: 1 2 3 4 5 6 7 8 9 10 11 12 13 14 15 16 17 18 19 20 21 22 23 24 25 26 27 28 29 30 31 32
000
FTUS43 KGRB 301720
TAFRHI
TAF
KRHI 301720Z 3018/0118 08012G18KT P6SM SCT060 BKN250
     FM302200 06008KT P6SM SCT040 BKN100
     FM010900 03004KT P6SM BKN040 BKN080
     FM011100 04008KT P6SM BKN040=

USA.gov is the U.S. government's official web portal to all federal, state and local government web resources and services.